Time,TemperatureF,DewpointF,PressureIn,WindDirection,WindDirectionDegrees,WindSpeedMPH,WindSpeedGustMPH,Humidity,HourlyPrecipIn,Conditions,Clouds,dailyrainin,SolarRadiationWatts/m^2,SoftwareType,DateUTC
2013-04-06 00:01:00,42.6,38.1,29.90,NE,40,5.0,14.0,84,0.00,,---,0.00,0.00,VWS V14.01,2013-04-06 07:01:00,
2013-04-06 00:06:00,42.7,37.9,29.90,NE,42,14.0,16.0,83,0.00,,---,0.00,0.00,VWS V14.01,2013-04-06 07:06:00,
2013-04-06 00:11:00,42.7,37.9,29.90,NE,34,7.0,16.0,83,0.00,,---,0.00,0.00,VWS V14.01,2013-04-06 07:11:00,
2013-04-06 00:16:00,42.8,38.0,29.90,NNW,333,5.0,16.0,83,0.00,,---,0.00,0.00,VWS V14.01,2013-04-06 07:16:00,
2013-04-06 00:21:00,42.9,37.8,29.90,NNE,16,7.0,16.0,82,0.00,,---,0.00,0.00,VWS V14.01,2013-04-06 07:21:00,
2013-04-06 00:26:00,43.0,38.2,29.90,NNW,344,6.0,16.0,83,0.00,,---,0.00,0.00,VWS V14.01,2013-04-06 07:26:00,
2013-04-06 00:31:00,43.0,38.2,29.90,NNE,18,4.0,11.0,83,0.00,,---,0.00,0.00,VWS V14.01,2013-04-06 07:31:00,
2013-04-06 00:36:00,43.0,38.2,29.90,NNW,347,7.0,11.0,83,0.00,,---,0.00,0.00,VWS V14.01,2013-04-06 07:36:00,
2013-04-06 00:41:00,43.1,38.3,29.90,North,360,3.0,16.0,83,0.00,,---,0.00,0.00,VWS V14.01,2013-04-06 07:41:00,
2013-04-06 00:46:00,43.1,38.0,29.90,NNE,25,6.0,16.0,82,0.00,,---,0.00,0.00,VWS V14.01,2013-04-06 07:46:00,
2013-04-06 00:51:00,43.2,38.1,29.90,North,355,10.0,16.0,82,0.00,,---,0.00,0.00,VWS V14.01,2013-04-06 07:51:00,
2013-04-06 00:56:00,43.2,38.1,29.90,NE,51,10.0,16.0,82,0.00,,---,0.00,0.00,VWS V14.01,2013-04-06 07:56:00,
2013-04-06 01:01:00,43.2,38.1,29.89,NNE,26,6.0,13.0,82,0.00,,---,0.00,0.00,VWS V14.01,2013-04-06 08:01:00,
2013-04-06 01:06:00,43.1,38.0,29.88,NNE,20,12.0,13.0,82,0.00,,---,0.00,0.00,VWS V14.01,2013-04-06 08:06:00,
2013-04-06 01:11:00,43.1,37.7,29.89,NNE,33,8.0,16.0,81,0.00,,---,0.00,0.00,VWS V14.01,2013-04-06 08:11:00,
2013-04-06 01:16:00,43.0,37.9,29.89,North,9,7.0,16.0,82,0.00,,---,0.00,0.00,VWS V14.01,2013-04-06 08:16:00,
2013-04-06 01:21:00,43.0,37.9,29.89,NE,49,7.0,16.0,82,0.00,,---,0.00,0.00,VWS V14.01,2013-04-06 08:21:00,
2013-04-06 01:26:00,42.9,38.1,29.88,NNE,13,7.0,16.0,83,0.00,,---,0.00,0.00,VWS V14.01,2013-04-06 08:26:00,
2013-04-06 01:32:00,42.8,37.7,29.89,NNE,30,5.0,12.0,82,0.00,,---,0.00,0.00,VWS V14.01,2013-04-06 08:32:00,
2013-04-06 01:37:00,42.8,37.7,29.88,NNW,331,6.0,12.0,82,0.00,,---,0.00,0.00,VWS V14.01,2013-04-06 08:37:00,
2013-04-06 01:42:00,42.8,38.0,29.88,NNW,347,9.0,12.0,83,0.00,,---,0.00,0.00,VWS V14.01,2013-04-06 08:42:00,
2013-04-06 01:47:00,42.7,37.9,29.88,NNE,30,4.0,12.0,83,0.00,,---,0.00,0.00,VWS V14.01,2013-04-06 08:47:00,
2013-04-06 01:52:00,42.5,37.7,29.88,NW,319,5.0,12.0,83,0.00,,---,0.00,0.00,VWS V14.01,2013-04-06 08:52:00,
2013-04-06 01:57:00,42.5,38.0,29.88,NNE,12,8.0,12.0,84,0.00,,---,0.00,0.00,VWS V14.01,2013-04-06 08:57:00,
2013-04-06 02:02:00,42.4,37.9,29.88,North,5,7.0,9.0,84,0.00,,---,0.00,0.00,VWS V14.01,2013-04-06 09:02:00,
2013-04-06 02:07:00,42.4,37.9,29.88,NNE,31,11.0,12.0,84,0.00,,---,0.00,0.00,VWS V14.01,2013-04-06 09:07:00,
2013-04-06 02:12:00,42.3,37.8,29.88,NNW,344,4.0,13.0,84,0.00,,---,0.00,0.00,VWS V14.01,2013-04-06 09:12:00,
2013-04-06 02:17:00,42.4,37.9,29.88,NNW,342,6.0,13.0,84,0.00,,---,0.00,0.00,VWS V14.01,2013-04-06 09:17:00,
2013-04-06 02:22:00,42.4,37.9,29.87,NE,38,5.0,13.0,84,0.00,,---,0.00,0.00,VWS V14.01,2013-04-06 09:22:00,
2013-04-06 02:27:00,42.5,38.0,29.87,NNE,32,11.0,15.0,84,0.00,,---,0.00,0.00,VWS V14.01,2013-04-06 09:27:00,
2013-04-06 02:32:00,42.6,38.1,29.87,NNE,32,7.0,14.0,84,0.00,,---,0.00,0.00,VWS V14.01,2013-04-06 09:32:00,
2013-04-06 02:37:00,42.7,38.2,29.86,NE,34,5.0,17.0,84,0.00,,---,0.00,0.00,VWS V14.01,2013-04-06 09:37:00,
2013-04-06 02:42:00,42.7,38.2,29.86,NNE,31,11.0,17.0,84,0.00,,---,0.00,0.00,VWS V14.01,2013-04-06 09:42:00,
2013-04-06 02:47:00,42.7,38.5,29.86,NNW,340,13.0,17.0,85,0.00,,---,0.00,0.00,VWS V14.01,2013-04-06 09:47:00,
2013-04-06 02:52:00,42.6,38.4,29.86,North,350,8.0,18.0,85,0.00,,---,0.00,0.00,VWS V14.01,2013-04-06 09:52:00,
2013-04-06 02:57:00,42.4,38.5,29.87,NNE,22,9.0,18.0,86,0.00,,---,0.00,0.00,VWS V14.01,2013-04-06 09:57:00,
2013-04-06 03:02:00,42.2,38.6,29.86,NE,37,7.0,14.0,87,0.00,,---,0.00,0.00,VWS V14.01,2013-04-06 10:02:00,
2013-04-06 03:07:00,42.2,38.6,29.86,NNE,22,15.0,15.0,87,0.00,,---,0.00,0.00,VWS V14.01,2013-04-06 10:07:00,
2013-04-06 03:12:00,42.2,38.6,29.87,NNE,22,5.0,15.0,87,0.00,,---,0.00,0.00,VWS V14.01,2013-04-06 10:12:00,
2013-04-06 03:17:00,42.3,38.7,29.87,NNE,29,6.0,15.0,87,0.00,,---,0.00,0.00,VWS V14.01,2013-04-06 10:17:00,
2013-04-06 03:22:00,42.4,38.5,29.87,ENE,62,9.0,16.0,86,0.00,,---,0.00,0.00,VWS V14.01,2013-04-06 10:22:00,
2013-04-06 03:27:00,42.4,38.5,29.87,NNE,20,9.0,16.0,86,0.00,,---,0.00,0.00,VWS V14.01,2013-04-06 10:27:00,
2013-04-06 03:32:00,42.4,38.8,29.87,NNE,30,10.0,13.0,87,0.00,,---,0.00,0.00,VWS V14.01,2013-04-06 10:32:00,
2013-04-06 03:37:00,42.4,38.8,29.87,NNE,13,12.0,13.0,87,0.00,,---,0.00,0.00,VWS V14.01,2013-04-06 10:37:00,
2013-04-06 03:42:00,42.3,38.7,29.86,North,5,7.0,15.0,87,0.00,,---,0.00,0.00,VWS V14.01,2013-04-06 10:42:00,
2013-04-06 03:47:00,42.3,38.7,29.86,NNE,32,10.0,15.0,87,0.00,,---,0.00,0.00,VWS V14.01,2013-04-06 10:47:00,
2013-04-06 03:52:00,42.1,38.5,29.86,NNE,26,6.0,15.0,87,0.00,,---,0.00,0.00,VWS V14.01,2013-04-06 10:52:00,
2013-04-06 03:57:00,42.0,38.4,29.86,NE,42,9.0,15.0,87,0.00,,---,0.00,0.00,VWS V14.01,2013-04-06 10:57:00,
2013-04-06 04:02:00,41.9,38.6,29.87,ENE,65,14.0,14.0,88,0.00,,---,0.00,0.00,VWS V14.01,2013-04-06 11:02:00,
2013-04-06 04:07:00,41.8,38.5,29.87,NE,35,8.0,14.0,88,0.00,,---,0.00,0.00,VWS V14.01,2013-04-06 11:07:00,
2013-04-06 04:12:00,41.8,38.5,29.87,ENE,61,8.0,15.0,88,0.00,,---,0.00,0.00,VWS V14.01,2013-04-06 11:12:00,
2013-04-06 04:17:00,41.9,38.6,29.89,ENE,76,5.0,15.0,88,0.00,,---,0.00,0.00,VWS V14.01,2013-04-06 11:17:00,
2013-04-06 04:22:00,41.9,38.6,29.89,East,100,1.0,15.0,88,0.00,,---,0.00,0.00,VWS V14.01,2013-04-06 11:22:00,
2013-04-06 04:27:00,41.8,38.5,29.89,ENE,57,3.0,15.0,88,0.00,,---,0.00,0.00,VWS V14.01,2013-04-06 11:27:00,
2013-04-06 04:32:00,41.6,38.3,29.89,NNE,16,4.0,6.0,88,0.00,,---,0.00,0.00,VWS V14.01,2013-04-06 11:32:00,
2013-04-06 04:33:00,41.6,38.3,29.89,NE,49,3.0,6.0,88,0.00,,---,0.00,0.00,VWS V14.01,2013-04-06 11:33:00,
2013-04-06 04:38:00,41.5,38.2,29.88,NE,44,7.0,8.0,88,0.00,,---,0.00,0.00,VWS V14.01,2013-04-06 11:38:00,
2013-04-06 04:43:00,41.6,37.1,29.88,NE,38,3.0,15.0,84,0.00,,---,0.00,0.00,VWS V14.01,2013-04-06 11:43:00,
2013-04-06 04:48:00,41.9,37.1,29.88,NE,43,5.0,15.0,83,0.00,,---,0.00,0.00,VWS V14.01,2013-04-06 11:48:00,
2013-04-06 04:53:00,41.9,37.1,29.89,NNE,22,8.0,15.0,83,0.00,,---,0.00,0.00,VWS V14.01,2013-04-06 11:53:00,
2013-04-06 04:58:00,41.9,36.5,29.89,NE,50,7.0,15.0,81,0.00,,---,0.00,0.00,VWS V14.01,2013-04-06 11:58:00,
2013-04-06 05:03:00,41.9,35.5,29.89,North,5,9.0,9.0,78,0.00,,---,0.00,0.00,VWS V14.01,2013-04-06 12:03:00,
2013-04-06 05:08:00,41.9,35.9,29.89,NNE,16,6.0,9.0,79,0.00,,---,0.00,0.00,VWS V14.01,2013-04-06 12:08:00,
2013-04-06 05:13:00,41.7,35.7,29.89,NNE,28,7.0,9.0,79,0.00,,---,0.00,0.00,VWS V14.01,2013-04-06 12:13:00,
2013-04-06 05:18:00,41.5,36.1,29.89,NE,39,3.0,9.0,81,0.00,,---,0.00,0.00,VWS V14.01,2013-04-06 12:18:00,
2013-04-06 05:23:00,41.2,36.1,29.89,NNE,12,7.0,9.0,82,0.00,,---,0.00,0.00,VWS V14.01,2013-04-06 12:23:00,
2013-04-06 05:28:00,41.1,36.0,29.89,NE,36,4.0,9.0,82,0.00,,---,0.00,0.00,VWS V14.01,2013-04-06 12:28:00,
2013-04-06 05:33:00,41.0,35.9,29.89,NNE,22,5.0,12.0,82,0.00,,---,0.00,0.00,VWS V14.01,2013-04-06 12:33:00,
2013-04-06 05:38:00,40.9,35.8,29.89,NE,44,5.0,12.0,82,0.00,,---,0.00,0.00,VWS V14.01,2013-04-06 12:38:00,
2013-04-06 05:43:00,40.8,35.7,29.89,NE,55,3.0,12.0,82,0.00,,---,0.00,0.00,VWS V14.01,2013-04-06 12:43:00,
2013-04-06 05:48:00,40.7,35.6,29.90,North,5,2.0,12.0,82,0.00,,---,0.00,0.00,VWS V14.01,2013-04-06 12:48:00,
2013-04-06 05:53:00,40.6,35.5,29.89,NNE,28,8.0,12.0,82,0.00,,---,0.00,0.00,VWS V14.01,2013-04-06 12:53:00,
2013-04-06 05:59:00,40.6,35.2,29.90,NNW,331,9.0,22.0,81,0.00,,---,0.00,0.00,VWS V14.01,2013-04-06 12:59:00,
2013-04-06 06:04:00,40.9,35.5,29.90,NNW,338,3.0,5.0,81,0.00,,---,0.00,0.00,VWS V14.01,2013-04-06 13:04:00,
2013-04-06 06:09:00,40.7,35.3,29.90,NW,315,3.0,5.0,81,0.00,,---,0.00,0.00,VWS V14.01,2013-04-06 13:09:00,
2013-04-06 06:14:00,40.5,35.5,29.91,WNW,299,2.0,8.0,82,0.00,,---,0.00,0.00,VWS V14.01,2013-04-06 13:14:00,
2013-04-06 06:19:00,40.4,35.7,29.91,WNW,284,6.0,8.0,83,0.00,,---,0.00,0.00,VWS V14.01,2013-04-06 13:19:00,
2013-04-06 06:24:00,40.3,35.6,29.92,WSW,237,2.0,8.0,83,0.00,,---,0.00,0.00,VWS V14.01,2013-04-06 13:24:00,
2013-04-06 06:29:00,40.3,35.2,29.91,WSW,240,1.0,8.0,82,0.00,,---,0.00,0.00,VWS V14.01,2013-04-06 13:29:00,
2013-04-06 06:34:00,40.1,35.4,29.92,NW,315,3.0,6.0,83,0.00,,---,0.00,0.00,VWS V14.01,2013-04-06 13:34:00,
2013-04-06 06:39:00,40.4,35.7,29.91,West,279,6.0,9.0,83,0.00,,---,0.00,0.00,VWS V14.01,2013-04-06 13:39:00,
2013-04-06 06:44:00,40.3,35.6,29.92,NW,317,1.0,9.0,83,0.00,,---,0.00,0.00,VWS V14.01,2013-04-06 13:44:00,
2013-04-06 06:49:00,40.2,35.5,29.92,NNW,334,9.0,9.0,83,0.00,,---,0.00,5.00,VWS V14.01,2013-04-06 13:49:00,
2013-04-06 06:54:00,40.4,35.3,29.92,SW,227,4.0,9.0,82,0.00,,---,0.00,5.00,VWS V14.01,2013-04-06 13:54:00,
2013-04-06 06:59:00,40.5,35.5,29.92,WNW,288,2.0,10.0,82,0.00,,---,0.00,9.00,VWS V14.01,2013-04-06 13:59:00,
2013-04-06 07:04:00,40.6,35.8,29.93,WSW,258,5.0,7.0,83,0.00,,---,0.00,12.00,VWS V14.01,2013-04-06 14:04:00,
2013-04-06 07:09:00,40.9,35.5,29.93,NW,314,4.0,11.0,81,0.00,,---,0.00,23.00,VWS V14.01,2013-04-06 14:09:00,
2013-04-06 07:14:00,41.0,35.6,29.93,NW,326,4.0,11.0,81,0.00,,---,0.00,23.00,VWS V14.01,2013-04-06 14:14:00,
2013-04-06 07:19:00,41.1,35.7,29.93,WNW,302,6.0,11.0,81,0.00,,---,0.00,35.00,VWS V14.01,2013-04-06 14:19:00,
2013-04-06 07:24:00,41.1,35.7,29.92,West,277,7.0,11.0,81,0.00,,---,0.00,54.00,VWS V14.01,2013-04-06 14:24:00,
2013-04-06 07:29:00,41.2,35.8,29.93,NW,304,4.0,11.0,81,0.00,,---,0.00,47.00,VWS V14.01,2013-04-06 14:29:00,
2013-04-06 07:34:00,41.3,35.9,29.93,North,355,2.0,8.0,81,0.00,,---,0.00,30.00,VWS V14.01,2013-04-06 14:34:00,
2013-04-06 07:39:00,41.3,35.9,29.93,North,349,4.0,9.0,81,0.00,,---,0.00,37.00,VWS V14.01,2013-04-06 14:39:00,
2013-04-06 07:44:00,41.4,36.0,29.93,NE,49,6.0,9.0,81,0.00,,---,0.00,54.00,VWS V14.01,2013-04-06 14:44:00,
2013-04-06 07:49:00,41.4,35.7,29.94,NE,44,2.0,9.0,80,0.00,,---,0.00,53.00,VWS V14.01,2013-04-06 14:49:00,
2013-04-06 07:54:00,41.6,36.2,29.94,NE,50,3.0,9.0,81,0.00,,---,0.00,88.00,VWS V14.01,2013-04-06 14:54:00,
2013-04-06 08:00:00,41.7,36.0,29.94,NNE,15,6.0,9.0,80,0.00,,---,0.00,60.00,VWS V14.01,2013-04-06 15:00:00,
2013-04-06 08:05:00,41.8,36.1,29.94,NE,42,6.0,10.0,80,0.00,,---,0.00,53.00,VWS V14.01,2013-04-06 15:05:00,
2013-04-06 08:10:00,41.8,36.4,29.94,NNE,32,4.0,12.0,81,0.00,,---,0.00,49.00,VWS V14.01,2013-04-06 15:10:00,
2013-04-06 08:15:00,41.8,36.4,29.95,NE,42,4.0,12.0,81,0.00,,---,0.00,46.00,VWS V14.01,2013-04-06 15:15:00,
2013-04-06 08:20:00,41.8,36.4,29.95,NNE,18,7.0,12.0,81,0.00,,---,0.00,56.00,VWS V14.01,2013-04-06 15:20:00,
2013-04-06 08:25:00,41.7,37.5,29.95,NNE,13,5.0,12.0,85,0.00,,---,0.00,79.00,VWS V14.01,2013-04-06 15:25:00,
2013-04-06 08:30:00,41.5,37.3,29.94,North,5,2.0,12.0,85,0.00,,---,0.00,134.00,VWS V14.01,2013-04-06 15:30:00,
2013-04-06 08:35:00,41.6,38.0,29.95,NNE,13,2.0,8.0,87,0.00,,---,0.00,260.00,VWS V14.01,2013-04-06 15:35:00,
2013-04-06 08:40:00,42.1,38.2,29.95,North,5,8.0,9.0,86,0.00,,---,0.00,221.00,VWS V14.01,2013-04-06 15:40:00,
2013-04-06 08:45:00,42.8,38.6,29.94,NNE,16,2.0,9.0,85,0.00,,---,0.00,230.00,VWS V14.01,2013-04-06 15:45:00,
2013-04-06 08:50:00,43.5,37.4,29.94,North,5,0.0,9.0,79,0.00,,---,0.00,225.00,VWS V14.01,2013-04-06 15:50:00,
2013-04-06 08:55:00,44.0,37.6,29.94,WNW,298,5.0,9.0,78,0.00,,---,0.00,265.00,VWS V14.01,2013-04-06 15:55:00,
2013-04-06 09:00:00,44.6,38.5,29.94,NE,35,2.0,9.0,79,0.00,,---,0.00,338.00,VWS V14.01,2013-04-06 16:00:00,
2013-04-06 09:05:00,44.9,37.8,29.94,NNE,16,8.0,9.0,76,0.00,,---,0.00,413.00,VWS V14.01,2013-04-06 16:05:00,
2013-04-06 09:10:00,45.1,37.7,29.94,ENE,61,8.0,9.0,75,0.00,,---,0.00,452.00,VWS V14.01,2013-04-06 16:10:00,
2013-04-06 09:15:00,45.0,37.6,29.95,NE,46,8.0,11.0,75,0.00,,---,0.00,316.00,VWS V14.01,2013-04-06 16:15:00,
2013-04-06 09:20:00,44.9,37.5,29.94,NNE,15,6.0,12.0,75,0.00,,---,0.00,406.00,VWS V14.01,2013-04-06 16:20:00,
2013-04-06 09:25:00,44.8,36.7,29.95,NE,39,6.0,12.0,73,0.00,,---,0.00,383.00,VWS V14.01,2013-04-06 16:25:00,
2013-04-06 09:30:00,44.9,37.1,29.95,NE,55,2.0,12.0,74,0.00,,---,0.00,413.00,VWS V14.01,2013-04-06 16:30:00,
2013-04-06 09:35:00,45.1,37.3,29.95,NNE,28,3.0,5.0,74,0.00,,---,0.00,483.00,VWS V14.01,2013-04-06 16:35:00,
2013-04-06 09:40:00,45.2,36.7,29.95,ENE,61,2.0,5.0,72,0.00,,---,0.00,649.00,VWS V14.01,2013-04-06 16:40:00,
2013-04-06 09:45:00,45.6,37.5,29.95,East,96,5.0,6.0,73,0.00,,---,0.00,269.00,VWS V14.01,2013-04-06 16:45:00,
2013-04-06 09:50:00,45.8,36.6,29.95,ENE,61,4.0,6.0,70,0.00,,---,0.00,292.00,VWS V14.01,2013-04-06 16:50:00,
2013-04-06 09:55:00,45.8,37.0,29.95,ENE,60,3.0,6.0,71,0.00,,---,0.00,401.00,VWS V14.01,2013-04-06 16:55:00,
2013-04-06 10:00:00,45.7,37.5,29.95,NE,36,7.0,9.0,73,0.00,,---,0.00,264.00,VWS V14.01,2013-04-06 17:00:00,
2013-04-06 10:05:00,45.7,36.5,29.95,ENE,65,2.0,7.0,70,0.00,,---,0.00,209.00,VWS V14.01,2013-04-06 17:05:00,
2013-04-06 10:10:00,45.8,37.3,29.95,ESE,110,2.0,7.0,72,0.00,,---,0.00,322.00,VWS V14.01,2013-04-06 17:10:00,
2013-04-06 10:15:00,46.0,37.1,29.96,ENE,64,4.0,7.0,71,0.00,,---,0.00,322.00,VWS V14.01,2013-04-06 17:15:00,
2013-04-06 10:20:00,46.3,35.6,29.96,NNE,17,4.0,11.0,66,0.00,,---,0.00,425.00,VWS V14.01,2013-04-06 17:20:00,
2013-04-06 10:25:00,46.2,36.2,29.96,SSE,147,3.0,11.0,68,0.00,,---,0.00,221.00,VWS V14.01,2013-04-06 17:25:00,
2013-04-06 10:30:00,46.0,35.7,29.97,ESE,123,1.0,11.0,67,0.00,,---,0.00,128.00,VWS V14.01,2013-04-06 17:30:00,
2013-04-06 10:35:00,45.7,35.4,29.96,West,279,0.0,7.0,67,0.00,,---,0.00,151.00,VWS V14.01,2013-04-06 17:35:00,
2013-04-06 10:40:00,45.4,34.3,29.97,SSE,151,9.0,14.0,65,0.00,,---,0.00,141.00,VWS V14.01,2013-04-06 17:40:00,
2013-04-06 10:45:00,45.2,33.8,29.97,ENE,59,9.0,14.0,64,0.00,,---,0.00,123.00,VWS V14.01,2013-04-06 17:45:00,
2013-04-06 10:50:00,45.0,33.2,29.97,SE,124,3.0,14.0,63,0.00,,---,0.00,139.00,VWS V14.01,2013-04-06 17:50:00,
2013-04-06 10:55:00,44.9,33.9,29.97,ESE,119,1.0,14.0,65,0.00,,---,0.00,216.00,VWS V14.01,2013-04-06 17:55:00,
2013-04-06 11:00:00,45.0,34.3,29.97,East,84,0.0,14.0,66,0.00,,---,0.00,141.00,VWS V14.01,2013-04-06 18:00:00,
2013-04-06 11:05:00,45.2,34.5,29.98,West,263,2.0,7.0,66,0.00,,---,0.00,253.00,VWS V14.01,2013-04-06 18:05:00,
2013-04-06 11:10:00,45.5,34.8,29.98,SW,221,4.0,7.0,66,0.00,,---,0.00,243.00,VWS V14.01,2013-04-06 18:10:00,
2013-04-06 11:15:00,45.8,35.8,29.98,SSE,149,0.0,8.0,68,0.00,,---,0.00,308.00,VWS V14.01,2013-04-06 18:15:00,
2013-04-06 11:20:00,46.2,35.5,29.98,SSE,154,0.0,8.0,66,0.00,,---,0.00,176.00,VWS V14.01,2013-04-06 18:20:00,
2013-04-06 11:25:00,46.5,35.0,29.98,SSE,165,1.0,8.0,64,0.00,,---,0.00,163.00,VWS V14.01,2013-04-06 18:25:00,
2013-04-06 11:30:00,46.7,34.8,29.97,SW,236,2.0,8.0,63,0.00,,---,0.00,195.00,VWS V14.01,2013-04-06 18:30:00,
2013-04-06 11:35:00,46.8,35.3,29.98,NNE,21,0.0,2.0,64,0.00,,---,0.00,262.00,VWS V14.01,2013-04-06 18:35:00,
2013-04-06 11:40:00,47.1,34.8,29.98,NE,40,4.0,8.0,62,0.00,,---,0.00,162.00,VWS V14.01,2013-04-06 18:40:00,
2013-04-06 11:45:00,47.4,35.0,29.97,NE,44,7.0,8.0,62,0.00,,---,0.00,163.00,VWS V14.01,2013-04-06 18:45:00,
2013-04-06 11:50:00,47.3,35.4,29.98,NE,52,3.0,11.0,63,0.00,,---,0.00,144.00,VWS V14.01,2013-04-06 18:50:00,
2013-04-06 11:55:00,47.1,35.2,29.98,NE,55,2.0,11.0,63,0.00,,---,0.00,160.00,VWS V14.01,2013-04-06 18:55:00,
2013-04-06 12:00:00,46.9,35.8,29.98,SE,145,2.0,11.0,65,0.00,,---,0.00,146.00,VWS V14.01,2013-04-06 19:00:00,
2013-04-06 12:05:00,46.6,35.9,29.98,NNE,23,8.0,10.0,66,0.00,,---,0.00,135.00,VWS V14.01,2013-04-06 19:05:00,
2013-04-06 12:10:00,46.3,36.0,29.98,NNE,15,5.0,10.0,67,0.00,,---,0.00,128.00,VWS V14.01,2013-04-06 19:10:00,
2013-04-06 12:15:00,46.3,34.8,29.98,ENE,71,4.0,12.0,64,0.00,,---,0.00,118.00,VWS V14.01,2013-04-06 19:15:00,
2013-04-06 12:20:00,46.3,36.0,29.98,North,11,9.0,12.0,67,0.00,,---,0.00,213.00,VWS V14.01,2013-04-06 19:20:00,
2013-04-06 12:25:00,46.4,35.3,29.98,ENE,69,11.0,17.0,65,0.00,,---,0.00,213.00,VWS V14.01,2013-04-06 19:25:00,
2013-04-06 12:30:00,46.8,35.7,29.98,NNE,31,4.0,17.0,65,0.00,,---,0.00,346.00,VWS V14.01,2013-04-06 19:30:00,
2013-04-06 12:35:00,47.4,35.5,29.98,East,86,6.0,16.0,63,0.00,,---,0.00,475.00,VWS V14.01,2013-04-06 19:35:00,
2013-04-06 12:40:00,48.0,35.2,29.98,East,86,6.0,16.0,61,0.00,,---,0.00,279.00,VWS V14.01,2013-04-06 19:40:00,
2013-04-06 12:45:00,48.5,34.8,29.99,ENE,78,13.0,16.0,59,0.00,,---,0.00,243.00,VWS V14.01,2013-04-06 19:45:00,
2013-04-06 12:50:00,48.4,33.9,29.99,East,96,2.0,16.0,57,0.00,,---,0.00,216.00,VWS V14.01,2013-04-06 19:50:00,
2013-04-06 12:55:00,48.1,34.0,29.98,NE,44,7.0,16.0,58,0.00,,---,0.00,169.00,VWS V14.01,2013-04-06 19:55:00,
2013-04-06 13:00:00,48.1,33.6,29.98,NNE,28,7.0,16.0,57,0.00,,---,0.00,192.00,VWS V14.01,2013-04-06 20:00:00,
2013-04-06 13:05:00,47.8,33.3,29.98,ENE,74,8.0,10.0,57,0.00,,---,0.00,258.00,VWS V14.01,2013-04-06 20:05:00,
2013-04-06 13:10:00,47.7,34.1,29.98,ESE,122,4.0,10.0,59,0.00,,---,0.00,220.00,VWS V14.01,2013-04-06 20:10:00,
2013-04-06 13:15:00,47.9,34.7,29.97,SE,128,2.0,10.0,60,0.00,,---,0.00,192.00,VWS V14.01,2013-04-06 20:15:00,
2013-04-06 13:20:00,48.2,34.6,29.97,ESE,103,4.0,10.0,59,0.00,,---,0.00,190.00,VWS V14.01,2013-04-06 20:20:00,
2013-04-06 13:25:00,48.3,34.7,29.97,ENE,67,3.0,10.0,59,0.00,,---,0.00,176.00,VWS V14.01,2013-04-06 20:25:00,
2013-04-06 13:30:00,48.3,34.2,29.97,East,82,3.0,11.0,58,0.00,,---,0.00,183.00,VWS V14.01,2013-04-06 20:30:00,
2013-04-06 13:35:00,48.1,34.5,29.97,ESE,110,4.0,9.0,59,0.00,,---,0.00,192.00,VWS V14.01,2013-04-06 20:35:00,
2013-04-06 13:40:00,48.1,35.3,29.97,East,96,5.0,9.0,61,0.00,,---,0.00,179.00,VWS V14.01,2013-04-06 20:40:00,
2013-04-06 13:45:00,48.1,35.3,29.97,ESE,103,2.0,9.0,61,0.00,,---,0.00,144.00,VWS V14.01,2013-04-06 20:45:00,
2013-04-06 13:50:00,48.2,35.0,29.97,East,96,6.0,9.0,60,0.00,,---,0.00,148.00,VWS V14.01,2013-04-06 20:50:00,
2013-04-06 13:55:00,48.1,36.1,29.96,ENE,64,5.0,9.0,63,0.00,,---,0.00,193.00,VWS V14.01,2013-04-06 20:55:00,
2013-04-06 14:00:00,48.0,36.8,29.96,NNW,334,10.0,14.0,65,0.00,,---,0.00,185.00,VWS V14.01,2013-04-06 21:00:00,
2013-04-06 14:05:00,47.8,36.2,29.96,SE,145,4.0,17.0,64,0.00,,---,0.00,200.00,VWS V14.01,2013-04-06 21:05:00,
2013-04-06 14:10:00,47.9,36.3,29.96,ENE,70,10.0,17.0,64,0.00,,---,0.00,190.00,VWS V14.01,2013-04-06 21:10:00,
2013-04-06 14:15:00,48.0,36.4,29.96,NE,56,10.0,17.0,64,0.00,,---,0.00,302.00,VWS V14.01,2013-04-06 21:15:00,
2013-04-06 14:20:00,48.7,37.5,29.95,NE,51,11.0,17.0,65,0.00,,---,0.00,923.00,VWS V14.01,2013-04-06 21:20:00,
2013-04-06 14:25:00,49.9,36.6,29.95,NE,44,8.0,17.0,60,0.00,,---,0.00,220.00,VWS V14.01,2013-04-06 21:25:00,
2013-04-06 14:30:00,49.7,36.0,29.95,NE,53,9.0,9.0,59,0.00,,---,0.00,288.00,VWS V14.01,2013-04-06 21:30:00,
2013-04-06 14:35:00,49.1,37.1,29.95,ENE,63,12.0,18.0,63,0.00,,---,0.00,237.00,VWS V14.01,2013-04-06 21:35:00,
2013-04-06 14:40:00,49.3,37.7,29.95,East,81,13.0,18.0,64,0.00,,---,0.00,803.00,VWS V14.01,2013-04-06 21:40:00,
2013-04-06 14:45:00,50.3,35.7,29.94,ESE,102,10.0,21.0,57,0.00,,---,0.00,555.00,VWS V14.01,2013-04-06 21:45:00,
2013-04-06 14:50:00,50.1,33.7,29.95,East,80,9.0,28.0,53,0.00,,---,0.00,304.00,VWS V14.01,2013-04-06 21:50:00,
2013-04-06 14:55:00,49.4,31.6,29.95,ESE,117,19.0,28.0,50,0.00,,---,0.00,209.00,VWS V14.01,2013-04-06 21:55:00,
2013-04-06 15:00:00,48.6,30.8,29.95,NE,48,16.0,16.0,50,0.00,,---,0.00,176.00,VWS V14.01,2013-04-06 22:00:00,
2013-04-06 15:05:00,48.4,31.6,29.94,NNE,30,8.0,25.0,52,0.00,,---,0.00,302.00,VWS V14.01,2013-04-06 22:05:00,
2013-04-06 15:10:00,48.7,32.3,29.94,NE,44,12.0,25.0,53,0.00,,---,0.00,257.00,VWS V14.01,2013-04-06 22:10:00,
2013-04-06 15:15:00,48.8,33.4,29.94,NE,36,14.0,25.0,55,0.00,,---,0.00,376.00,VWS V14.01,2013-04-06 22:15:00,
2013-04-06 15:20:00,49.0,32.6,29.94,ENE,61,10.0,25.0,53,0.00,,---,0.00,206.00,VWS V14.01,2013-04-06 22:20:00,
2013-04-06 15:25:00,48.8,33.8,29.95,ENE,65,10.0,25.0,56,0.00,,---,0.00,302.00,VWS V14.01,2013-04-06 22:25:00,
2013-04-06 15:30:00,48.6,33.2,29.95,East,84,10.0,19.0,55,0.00,,---,0.00,274.00,VWS V14.01,2013-04-06 22:30:00,
2013-04-06 15:35:00,48.6,33.2,29.95,SE,141,9.0,19.0,55,0.00,,---,0.00,237.00,VWS V14.01,2013-04-06 22:35:00,
2013-04-06 15:40:00,48.5,31.7,29.95,ENE,64,8.0,19.0,52,0.00,,---,0.00,185.00,VWS V14.01,2013-04-06 22:40:00,
2013-04-06 15:45:00,48.3,31.5,29.95,NE,54,15.0,19.0,52,0.00,,---,0.00,214.00,VWS V14.01,2013-04-06 22:45:00,
2013-04-06 15:50:00,48.5,30.2,29.95,SE,146,11.0,19.0,49,0.00,,---,0.00,452.00,VWS V14.01,2013-04-06 22:50:00,
2013-04-06 15:55:00,48.7,30.4,29.95,East,93,10.0,20.0,49,0.00,,---,0.00,427.00,VWS V14.01,2013-04-06 22:55:00,
2013-04-06 16:00:00,48.9,31.6,29.95,NE,42,12.0,17.0,51,0.00,,---,0.00,448.00,VWS V14.01,2013-04-06 23:00:00,
2013-04-06 16:05:00,49.3,32.0,29.95,ESE,115,8.0,17.0,51,0.00,,---,0.00,371.00,VWS V14.01,2013-04-06 23:05:00,
2013-04-06 16:10:00,49.5,32.1,29.95,ENE,66,4.0,17.0,51,0.00,,---,0.00,418.00,VWS V14.01,2013-04-06 23:10:00,
2013-04-06 16:15:00,49.4,32.0,29.95,SE,146,9.0,17.0,51,0.00,,---,0.00,211.00,VWS V14.01,2013-04-06 23:15:00,
2013-04-06 16:20:00,49.0,32.2,29.95,NNE,33,3.0,17.0,52,0.00,,---,0.00,257.00,VWS V14.01,2013-04-06 23:20:00,
2013-04-06 16:25:00,48.9,32.5,29.95,ESE,114,3.0,17.0,53,0.00,,---,0.00,223.00,VWS V14.01,2013-04-06 23:25:00,
2013-04-06 16:30:00,48.7,32.8,29.94,ENE,78,4.0,4.0,54,0.00,,---,0.00,216.00,VWS V14.01,2013-04-06 23:30:00,
2013-04-06 16:35:00,48.5,33.1,29.94,East,83,7.0,11.0,55,0.00,,---,0.00,279.00,VWS V14.01,2013-04-06 23:35:00,
2013-04-06 16:40:00,48.6,33.2,29.94,ENE,74,5.0,11.0,55,0.00,,---,0.00,237.00,VWS V14.01,2013-04-06 23:40:00,
2013-04-06 16:45:00,48.7,33.7,29.94,NE,54,1.0,11.0,56,0.00,,---,0.00,188.00,VWS V14.01,2013-04-06 23:45:00,
2013-04-06 16:50:00,48.7,33.7,29.94,ESE,108,3.0,11.0,56,0.00,,---,0.00,121.00,VWS V14.01,2013-04-06 23:50:00,
2013-04-06 16:55:00,48.7,33.3,29.94,East,90,1.0,11.0,55,0.00,,---,0.00,114.00,VWS V14.01,2013-04-06 23:55:00,
2013-04-06 17:00:00,48.5,34.0,29.94,ENE,57,8.0,8.0,57,0.00,,---,0.00,123.00,VWS V14.01,2013-04-07 00:00:00,
2013-04-06 17:06:00,48.4,33.9,29.93,NNE,26,9.0,9.0,57,0.00,,---,0.00,113.00,VWS V14.01,2013-04-07 00:06:00,
2013-04-06 17:11:00,47.9,33.8,29.94,ENE,64,7.0,12.0,58,0.00,,---,0.00,146.00,VWS V14.01,2013-04-07 00:11:00,
2013-04-06 17:16:00,47.6,34.8,29.93,ENE,69,12.0,12.0,61,0.00,,---,0.00,158.00,VWS V14.01,2013-04-07 00:16:00,
2013-04-06 17:21:00,47.3,34.5,29.93,North,5,9.0,12.0,61,0.00,,---,0.00,123.00,VWS V14.01,2013-04-07 00:21:00,
2013-04-06 17:26:00,47.1,34.4,29.93,NE,34,7.0,13.0,61,0.00,,---,0.00,135.00,VWS V14.01,2013-04-07 00:26:00,
2013-04-06 17:31:00,46.7,34.4,29.93,NE,42,10.0,16.0,62,0.00,,---,0.00,142.00,VWS V14.01,2013-04-07 00:31:00,
2013-04-06 17:36:00,46.3,34.4,29.92,NE,48,12.0,16.0,63,0.00,,---,0.00,134.00,VWS V14.01,2013-04-07 00:36:00,
2013-04-06 17:41:00,46.0,34.1,29.93,North,5,8.0,21.0,63,0.00,,---,0.00,167.00,VWS V14.01,2013-04-07 00:41:00,
2013-04-06 17:46:00,45.9,34.8,29.93,NE,56,8.0,21.0,65,0.00,,---,0.00,169.00,VWS V14.01,2013-04-07 00:46:00,
2013-04-06 17:51:00,45.9,34.4,29.93,NE,40,6.0,21.0,64,0.00,,---,0.00,135.00,VWS V14.01,2013-04-07 00:51:00,
2013-04-06 17:56:00,46.0,34.9,29.93,ENE,67,8.0,21.0,65,0.00,,---,0.00,158.00,VWS V14.01,2013-04-07 00:56:00,
2013-04-06 18:01:00,46.2,34.3,29.93,NE,37,4.0,6.0,63,0.00,,---,0.00,206.00,VWS V14.01,2013-04-07 01:01:00,
2013-04-06 18:06:00,46.2,34.7,29.93,NE,55,5.0,12.0,64,0.00,,---,0.00,146.00,VWS V14.01,2013-04-07 01:06:00,
2013-04-06 18:11:00,46.1,34.6,29.92,NE,49,12.0,12.0,64,0.00,,---,0.00,213.00,VWS V14.01,2013-04-07 01:11:00,
2013-04-06 18:16:00,46.4,35.3,29.92,NE,44,6.0,12.0,65,0.00,,---,0.00,299.00,VWS V14.01,2013-04-07 01:16:00,
2013-04-06 18:20:00,46.9,35.4,29.92,NNE,17,7.0,13.0,64,0.00,,---,0.00,174.00,VWS V14.01,2013-04-07 01:20:00,
2013-04-06 18:26:00,46.6,35.1,29.92,ENE,59,7.0,16.0,64,0.00,,---,0.00,90.00,VWS V14.01,2013-04-07 01:26:00,
2013-04-06 18:31:00,45.9,34.8,29.92,NNE,32,6.0,10.0,65,0.00,,---,0.00,69.00,VWS V14.01,2013-04-07 01:31:00,
2013-04-06 18:36:00,45.1,34.4,29.92,NE,49,9.0,11.0,66,0.00,,---,0.00,62.00,VWS V14.01,2013-04-07 01:36:00,
2013-04-06 18:40:00,44.5,35.0,29.92,NE,51,6.0,11.0,69,0.00,,---,0.00,60.00,VWS V14.01,2013-04-07 01:40:00,
2013-04-06 18:45:00,44.2,35.0,29.91,NE,45,5.0,11.0,70,0.00,,---,0.00,77.00,VWS V14.01,2013-04-07 01:45:00,
2013-04-06 18:50:00,44.0,35.2,29.91,NE,55,6.0,11.0,71,0.00,,---,0.00,53.00,VWS V14.01,2013-04-07 01:50:00,
2013-04-06 18:55:00,43.8,35.4,29.91,NE,42,6.0,11.0,72,0.00,,---,0.00,30.00,VWS V14.01,2013-04-07 01:55:00,
2013-04-06 19:00:00,43.6,35.2,29.91,NNE,22,6.0,10.0,72,0.00,,---,0.00,32.00,VWS V14.01,2013-04-07 02:00:00,
2013-04-06 19:06:00,43.4,35.3,29.91,North,5,6.0,14.0,73,0.00,,---,0.00,35.00,VWS V14.01,2013-04-07 02:06:00,
2013-04-06 19:11:00,43.2,35.5,29.92,ENE,60,4.0,14.0,74,0.00,,---,0.00,40.00,VWS V14.01,2013-04-07 02:11:00,
2013-04-06 19:16:00,43.1,35.4,29.92,ENE,74,7.0,14.0,74,0.00,,---,0.00,42.00,VWS V14.01,2013-04-07 02:16:00,
2013-04-06 19:21:00,43.0,35.6,29.91,NE,45,6.0,14.0,75,0.00,,---,0.00,32.00,VWS V14.01,2013-04-07 02:21:00,
2013-04-06 19:26:00,42.8,35.8,29.91,NE,50,6.0,14.0,76,0.00,,---,0.00,12.00,VWS V14.01,2013-04-07 02:26:00,
2013-04-06 19:31:00,42.6,35.9,29.91,ENE,61,4.0,5.0,77,0.00,,---,0.00,7.00,VWS V14.01,2013-04-07 02:31:00,
2013-04-06 19:36:00,42.4,35.7,29.91,NE,47,7.0,8.0,77,0.00,,---,0.00,5.00,VWS V14.01,2013-04-07 02:36:00,
2013-04-06 19:41:00,42.2,35.5,29.91,ENE,59,5.0,8.0,77,0.00,,---,0.00,0.00,VWS V14.01,2013-04-07 02:41:00,
2013-04-06 19:46:00,41.9,35.5,29.91,NE,43,4.0,10.0,78,0.00,,---,0.00,0.00,VWS V14.01,2013-04-07 02:46:00,
2013-04-06 19:51:00,41.8,35.5,29.91,ENE,75,7.0,10.0,78,0.00,,---,0.00,0.00,VWS V14.01,2013-04-07 02:51:00,
2013-04-06 19:56:00,41.6,35.3,29.91,ENE,65,3.0,10.0,78,0.00,,---,0.00,0.00,VWS V14.01,2013-04-07 02:56:00,
2013-04-06 20:01:00,41.5,35.5,29.90,NE,36,3.0,7.0,79,0.00,,---,0.00,0.00,VWS V14.01,2013-04-07 03:01:00,
2013-04-06 20:06:00,41.4,35.4,29.90,North,11,7.0,10.0,79,0.00,,---,0.00,0.00,VWS V14.01,2013-04-07 03:06:00,
2013-04-06 20:11:00,41.4,35.4,29.90,ENE,58,3.0,10.0,79,0.00,,---,0.00,0.00,VWS V14.01,2013-04-07 03:11:00,
2013-04-06 20:16:00,41.3,35.9,29.90,North,10,6.0,10.0,81,0.00,,---,0.00,0.00,VWS V14.01,2013-04-07 03:16:00,
2013-04-06 20:21:00,41.1,36.3,29.90,North,5,6.0,10.0,83,0.00,,---,0.00,0.00,VWS V14.01,2013-04-07 03:21:00,
2013-04-06 20:26:00,40.7,36.2,29.90,NE,55,6.0,10.0,84,0.00,,---,0.00,0.00,VWS V14.01,2013-04-07 03:26:00,
2013-04-06 20:31:00,40.4,36.3,29.90,ENE,64,8.0,9.0,85,0.00,,---,0.00,0.00,VWS V14.01,2013-04-07 03:31:00,
2013-04-06 20:36:00,40.1,36.3,29.90,North,5,6.0,11.0,86,0.00,,---,0.00,0.00,VWS V14.01,2013-04-07 03:36:00,
2013-04-06 20:41:00,39.8,36.2,29.89,ENE,58,10.0,11.0,87,0.00,,---,0.00,0.00,VWS V14.01,2013-04-07 03:41:00,
2013-04-06 20:46:00,39.7,36.2,29.89,NE,44,3.0,11.0,87,0.00,,---,0.00,0.00,VWS V14.01,2013-04-07 03:46:00,
2013-04-06 20:51:00,39.6,36.1,29.89,NE,44,2.0,11.0,87,0.00,,---,0.00,0.00,VWS V14.01,2013-04-07 03:51:00,
2013-04-06 20:56:00,39.5,36.0,29.89,NE,54,3.0,11.0,87,0.00,,---,0.00,0.00,VWS V14.01,2013-04-07 03:56:00,
2013-04-06 21:00:00,39.5,36.0,29.89,NNE,33,3.0,11.0,87,0.00,,---,0.00,0.00,VWS V14.01,2013-04-07 04:00:00,
2013-04-06 21:05:00,39.5,36.0,29.89,East,87,7.0,10.0,87,0.00,,---,0.00,0.00,VWS V14.01,2013-04-07 04:05:00,
2013-04-06 21:10:00,39.5,35.7,29.89,North,5,6.0,11.0,86,0.00,,---,0.00,0.00,VWS V14.01,2013-04-07 04:10:00,
2013-04-06 21:15:00,39.5,35.7,29.88,North,360,6.0,13.0,86,0.00,,---,0.00,0.00,VWS V14.01,2013-04-07 04:15:00,
2013-04-06 21:20:00,39.5,35.7,29.88,NNE,28,5.0,13.0,86,0.00,,---,0.00,0.00,VWS V14.01,2013-04-07 04:20:00,
2013-04-06 21:25:00,39.5,36.0,29.88,North,355,6.0,13.0,87,0.00,,---,0.00,0.00,VWS V14.01,2013-04-07 04:25:00,
2013-04-06 21:30:00,39.4,36.2,29.88,NNE,24,9.0,9.0,88,0.00,,---,0.00,0.00,VWS V14.01,2013-04-07 04:30:00,
2013-04-06 21:35:00,39.1,36.1,29.87,NE,36,2.0,10.0,89,0.00,,---,0.00,0.00,VWS V14.01,2013-04-07 04:35:00,
2013-04-06 21:40:00,39.0,36.3,29.87,NNE,19,5.0,10.0,90,0.00,,---,0.00,0.00,VWS V14.01,2013-04-07 04:40:00,
2013-04-06 21:45:00,38.8,36.1,29.86,NNE,13,6.0,10.0,90,0.00,,---,0.00,0.00,VWS V14.01,2013-04-07 04:45:00,
2013-04-06 21:50:00,38.7,36.0,29.86,North,11,3.0,11.0,90,0.00,,---,0.00,0.00,VWS V14.01,2013-04-07 04:50:00,
2013-04-06 21:55:00,38.7,36.3,29.86,NE,44,3.0,11.0,91,0.00,,---,0.00,0.00,VWS V14.01,2013-04-07 04:55:00,
2013-04-06 22:00:00,38.7,36.3,29.86,North,5,2.0,3.0,91,0.00,,---,0.00,0.00,VWS V14.01,2013-04-07 05:00:00,
2013-04-06 22:05:00,38.6,36.2,29.86,North,355,3.0,7.0,91,0.00,,---,0.00,0.00,VWS V14.01,2013-04-07 05:05:00,
2013-04-06 22:10:00,38.7,36.6,29.85,NNE,32,4.0,8.0,92,0.00,,---,0.00,0.00,VWS V14.01,2013-04-07 05:10:00,
2013-04-06 22:15:00,38.6,36.5,29.85,NNW,347,3.0,8.0,92,0.00,,---,0.00,0.00,VWS V14.01,2013-04-07 05:15:00,
2013-04-06 22:20:00,38.8,36.7,29.85,NE,51,3.0,8.0,92,0.00,,---,0.00,0.00,VWS V14.01,2013-04-07 05:20:00,
2013-04-06 22:25:00,38.9,36.8,29.85,NNW,339,5.0,8.0,92,0.00,,---,0.00,0.00,VWS V14.01,2013-04-07 05:25:00,
2013-04-06 22:30:00,38.9,36.8,29.84,North,5,7.0,7.0,92,0.00,,---,0.00,0.00,VWS V14.01,2013-04-07 05:30:00,
2013-04-06 22:35:00,39.1,37.0,29.84,NNW,346,4.0,7.0,92,0.00,,---,0.00,0.00,VWS V14.01,2013-04-07 05:35:00,
2013-04-06 22:40:00,39.2,37.1,29.84,NE,36,5.0,7.0,92,0.00,,---,0.00,0.00,VWS V14.01,2013-04-07 05:40:00,
2013-04-06 22:45:00,39.3,36.9,29.84,North,351,4.0,8.0,91,0.00,,---,0.00,0.00,VWS V14.01,2013-04-07 05:45:00,
2013-04-06 22:50:00,39.3,36.9,29.83,North,355,4.0,11.0,91,0.00,,---,0.00,0.00,VWS V14.01,2013-04-07 05:50:00,
2013-04-06 22:55:00,39.3,36.9,29.83,NNW,344,4.0,11.0,91,0.00,,---,0.00,0.00,VWS V14.01,2013-04-07 05:55:00,
2013-04-06 23:00:00,39.3,36.9,29.82,NNE,15,5.0,5.0,91,0.00,,---,0.00,0.00,VWS V14.01,2013-04-07 06:00:00,
2013-04-06 23:05:00,39.3,36.9,29.82,NNE,30,11.0,11.0,91,0.00,,---,0.00,0.00,VWS V14.01,2013-04-07 06:05:00,
2013-04-06 23:10:00,39.3,36.9,29.81,NNW,344,10.0,13.0,91,0.00,,---,0.00,0.00,VWS V14.01,2013-04-07 06:10:00,
2013-04-06 23:15:00,39.4,37.0,29.80,NNE,21,8.0,13.0,91,0.00,,---,0.00,0.00,VWS V14.01,2013-04-07 06:15:00,
2013-04-06 23:20:00,39.5,37.1,29.79,NNE,13,9.0,18.0,91,0.00,,---,0.00,0.00,VWS V14.01,2013-04-07 06:20:00,
2013-04-06 23:25:00,39.4,37.0,29.79,NE,40,10.0,21.0,91,0.00,,---,0.00,0.00,VWS V14.01,2013-04-07 06:25:00,
2013-04-06 23:30:00,39.4,37.0,29.79,North,5,11.0,14.0,91,0.00,,---,0.00,0.00,VWS V14.01,2013-04-07 06:30:00,
2013-04-06 23:35:00,39.3,36.9,29.79,NE,36,9.0,23.0,91,0.00,,---,0.00,0.00,VWS V14.01,2013-04-07 06:35:00,
2013-04-06 23:40:00,39.2,36.8,29.79,ENE,60,14.0,23.0,91,0.00,,---,0.00,0.00,VWS V14.01,2013-04-07 06:40:00,
2013-04-06 23:45:00,39.1,36.7,29.79,NNE,28,5.0,23.0,91,0.00,,---,0.00,0.00,VWS V14.01,2013-04-07 06:45:00,
2013-04-06 23:50:00,39.1,36.7,29.79,NE,44,5.0,23.0,91,0.00,,---,0.00,0.00,VWS V14.01,2013-04-07 06:50:00,
2013-04-06 23:55:00,39.1,36.7,29.78,NNE,29,4.0,23.0,91,0.00,,---,0.00,0.00,VWS V14.01,2013-04-07 06:55:00,